Rochester Hills, MI (48306)

3:10 AM EST on February 13, 2016 (GMT -0500)
KMIROCHE6 | | Change Station
CLOSE
Current Station
Personal Weather Station
Location: Rochester, MI
Elevation: 797 ft
Nearby Weather Stations

Elev 797 ft 42.71 °N, 83.16 °W | Updated 55 seconds ago

Partly Cloudy
Partly Cloudy
3.6 °F
Feels Like 4 °F
N
0.0
Wind Variable Wind from SW
Gusts 0.0 mph

Today
High -- | Low -- °F
--% Chance of Precip.
Yesterday
High -- | Low -- °F
Precip. -- in
Pressure 30.31 in
Visibility 10.0 miles
Clouds Mostly Cloudy 3800 ft
Windchill 4 °F
Dew Point -11 °F
Humidity 50%
Rainfall 0.00 in
Snow Depth Not available.
7:33 AM 6:01 PM
Waxing Crescent, 28% visible
METAR KVLL 130754Z AUTO 29006KT 10SM BKN038 M14/M19 A3031 RMK AO2 T11401192
Pressure 30.31 in
Visibility 10.0 miles
Clouds Mostly Cloudy 3800 ft
Windchill 4 °F
Dew Point -11 °F
Humidity 50%
Rainfall 0.00 in
Snow Depth Not available.
7:33 AM 6:01 PM
Waxing Crescent, 28% visible
METAR KVLL 130754Z AUTO 29006KT 10SM BKN038 M14/M19 A3031 RMK AO2 T11401192

10-Day Weather Forecast

Almanac

Astronomy

Feb. 13, 2016 Rise Set
Actual Time
Civil Twilight
Nautical Twilight
Astronomical Twilight
Moon
Length of Visible Light
Length of Day
Tomorrow will be .
, % of the Moon is Illuminated

Today's Extremes

State Highs State Lows

Community

WunderPhotos

Upload Photos

1,892,526 photos uploaded!

WunderBlog® & News

Nearby

Air Quality

  Air Quality AQ Index Pollutant
Not available.

Snow Depth

Station Depth Elevation

Earthquake Activity

City Distance Mag. Time & Date
Minimum magnitude displayed is 2.5.

Coastal Water Temperatures

Place Temperature

Stations

Nearby Weather Stations

Station Location Temp. Windchill Dew Point Humidity Wind Precip. Elev Updated Type
                   

Watches & Warnings

There are currently no watches in effect.